createdAt,value
2022-11-12T00:02:43.852Z,6.92
2022-11-12T00:05:31.474Z,7.18
2022-11-12T00:08:20.049Z,7.48
2022-11-12T00:11:07.856Z,7.14
2022-11-12T00:13:54.947Z,7.21
2022-11-12T00:16:43.425Z,7.33
2022-11-12T00:19:30.902Z,6.96
2022-11-12T00:22:18.941Z,6.86
2022-11-12T00:25:09.400Z,7.21
2022-11-12T00:28:03.284Z,6.30
2022-11-12T00:30:50.548Z,7.05
2022-11-12T00:33:42.652Z,6.70
2022-11-12T00:36:29.836Z,7.14
2022-11-12T00:39:17.822Z,7.15
2022-11-12T00:42:05.516Z,7.22
2022-11-12T00:44:52.673Z,7.17
2022-11-12T00:47:39.972Z,7.34
2022-11-12T00:50:28.794Z,7.15
2022-11-12T00:53:16.775Z,7.16
2022-11-12T00:56:06.595Z,7.20
2022-11-12T00:58:54.047Z,7.25
2022-11-12T01:01:42.029Z,7.09
2022-11-12T01:04:32.211Z,7.28
2022-11-12T01:07:20.887Z,7.36
2022-11-12T01:10:09.203Z,7.47
2022-11-12T01:12:56.896Z,7.52
2022-11-12T01:15:44.399Z,7.72
2022-11-12T01:18:31.783Z,7.46
2022-11-12T01:21:19.909Z,7.52
2022-11-12T01:24:09.776Z,7.64
2022-11-12T01:26:56.918Z,7.64
2022-11-12T01:29:44.010Z,7.79
2022-11-12T01:32:35.035Z,7.77
2022-11-12T01:35:22.840Z,7.76
2022-11-12T01:38:10.771Z,7.64
2022-11-12T01:41:00.169Z,7.70
2022-11-12T01:43:47.825Z,7.54
2022-11-12T01:46:38.405Z,7.56
2022-11-12T01:49:29.781Z,7.61
2022-11-12T01:52:22.145Z,7.56
2022-11-12T01:55:14.735Z,7.74
2022-11-12T01:58:10.502Z,7.70
2022-11-12T02:00:59.120Z,7.73
2022-11-12T02:03:46.776Z,7.49
2022-11-12T02:06:36.723Z,7.72
2022-11-12T02:09:24.120Z,7.80
2022-11-12T02:12:32.131Z,8.11
2022-11-12T02:15:21.470Z,7.98
2022-11-12T02:18:11.150Z,8.14
2022-11-12T02:21:04.421Z,8.02
2022-11-12T02:24:01.105Z,8.07
2022-11-12T02:26:51.270Z,7.91
2022-11-12T02:29:46.376Z,7.99
2022-11-12T02:32:36.746Z,8.05
2022-11-12T02:35:23.949Z,7.95
2022-11-12T02:38:12.398Z,7.98
2022-11-12T02:41:01.188Z,8.00
2022-11-12T02:43:48.547Z,7.76
2022-11-12T02:46:38.367Z,8.11
2022-11-12T02:49:25.566Z,8.02
2022-11-12T02:52:12.909Z,7.83
2022-11-12T02:55:00.252Z,7.90
2022-11-12T02:57:48.734Z,8.13
2022-11-12T03:00:40.301Z,8.16
2022-11-12T03:03:29.534Z,8.00
2022-11-12T03:06:17.191Z,7.97
2022-11-12T03:09:04.994Z,8.20
2022-11-12T03:11:54.571Z,8.06
2022-11-12T03:14:43.128Z,8.03
2022-11-12T03:17:29.984Z,8.27
2022-11-12T03:20:18.320Z,8.27
2022-11-12T03:23:09.632Z,8.21
2022-11-12T03:25:56.799Z,8.31
2022-11-12T03:28:43.704Z,8.47
2022-11-12T03:31:32.633Z,8.29
2022-11-12T03:34:19.869Z,8.11
2022-11-12T03:37:09.528Z,8.14
2022-11-12T03:39:56.662Z,8.06
2022-11-12T03:42:46.766Z,8.24
2022-11-12T03:45:34.110Z,8.05
2022-11-12T03:48:23.921Z,8.25
2022-11-12T03:51:12.315Z,8.25
2022-11-12T03:53:59.400Z,8.04
2022-11-12T03:56:49.284Z,7.87
2022-11-12T03:59:36.577Z,7.94
2022-11-12T04:02:26.541Z,7.82
2022-11-12T04:05:34.085Z,7.76
2022-11-12T04:08:39.361Z,7.77
2022-11-12T04:11:26.734Z,7.73
2022-11-12T04:14:12.831Z,8.06
2022-11-12T04:17:18.106Z,7.91
2022-11-12T04:20:24.131Z,7.65
2022-11-12T04:23:13.179Z,7.76
2022-11-12T04:26:18.839Z,7.86
2022-11-12T04:29:24.353Z,7.90
2022-11-12T04:32:11.836Z,7.99
2022-11-12T04:34:59.424Z,7.99
2022-11-12T04:37:47.581Z,7.95
2022-11-12T04:40:53.511Z,7.93
2022-11-12T04:43:58.223Z,7.78
2022-11-12T04:46:45.805Z,7.90
2022-11-12T04:49:33.215Z,7.72
2022-11-12T04:52:20.643Z,7.65
2022-11-12T04:55:08.641Z,7.79
2022-11-12T04:58:00.582Z,7.51
2022-11-12T05:00:48.967Z,7.58
2022-11-12T05:03:38.169Z,7.65
2022-11-12T05:06:39.574Z,7.66
2022-11-12T05:09:29.063Z,7.47
2022-11-12T05:12:16.872Z,6.34
2022-11-12T05:15:07.794Z,6.97
2022-11-12T05:17:55.278Z,6.90
2022-11-12T05:20:42.472Z,6.89
2022-11-12T05:23:29.661Z,6.71
2022-11-12T05:26:16.880Z,6.67
2022-11-12T05:29:08.603Z,6.90
2022-11-12T05:31:58.312Z,6.31
2022-11-12T05:34:45.739Z,6.58
2022-11-12T05:37:33.134Z,6.54
2022-11-12T05:40:20.859Z,6.66
2022-11-12T05:43:17.521Z,6.58
2022-11-12T05:46:08.435Z,6.40
2022-11-12T05:49:11.188Z,6.37
2022-11-12T05:52:26.248Z,6.23
2022-11-12T05:55:34.370Z,6.10
2022-11-12T05:58:33.096Z,6.10
2022-11-12T06:01:39.249Z,6.19
2022-11-12T06:04:39.943Z,6.07
2022-11-12T06:07:30.091Z,6.14
2022-11-12T06:10:25.049Z,5.24
2022-11-12T06:13:38.335Z,6.07
2022-11-12T06:16:26.329Z,6.24
2022-11-12T06:19:13.917Z,5.99
2022-11-12T06:22:03.302Z,4.78
2022-11-12T06:24:50.386Z,6.08
2022-11-12T06:27:37.877Z,5.91
2022-11-12T06:30:29.966Z,5.20
2022-11-12T06:33:52.486Z,5.86
2022-11-12T06:36:40.602Z,5.87
2022-11-12T06:39:29.936Z,5.83
2022-11-12T06:42:20.503Z,5.75
2022-11-12T06:45:09.385Z,5.73
2022-11-12T06:47:59.434Z,5.70
2022-11-12T06:50:47.418Z,5.16
2022-11-12T06:53:35.541Z,5.54
2022-11-12T06:56:25.564Z,5.44
2022-11-12T06:59:13.909Z,5.26
2022-11-12T07:02:02.763Z,5.28
2022-11-12T07:04:50.923Z,4.29
2022-11-12T07:07:38.518Z,3.09
2022-11-12T07:10:26.392Z,5.22
2022-11-12T07:13:16.406Z,5.19
2022-11-12T07:16:06.955Z,5.19
2022-11-12T07:18:54.670Z,5.31
2022-11-12T07:21:42.400Z,5.43
2022-11-12T07:24:30.106Z,5.38
2022-11-12T07:27:19.228Z,5.34
2022-11-12T07:30:09.760Z,5.06
2022-11-12T07:32:59.319Z,5.26
2022-11-12T07:35:47.219Z,5.27
2022-11-12T07:38:36.816Z,5.22
2022-11-12T07:41:26.553Z,5.22
2022-11-12T07:44:14.498Z,4.96
2022-11-12T07:47:03.232Z,4.65
2022-11-12T07:49:50.815Z,5.24
2022-11-12T07:52:38.476Z,5.16
2022-11-12T07:55:26.084Z,5.29
2022-11-12T07:58:13.933Z,5.55
2022-11-12T08:01:09.394Z,5.32
2022-11-12T08:04:02.639Z,5.38
2022-11-12T08:06:51.067Z,5.43
2022-11-12T08:09:41.592Z,5.37
2022-11-12T08:12:57.654Z,5.40
2022-11-12T08:15:50.988Z,5.71
2022-11-12T08:18:39.946Z,5.37
2022-11-12T08:21:29.307Z,5.83
2022-11-12T08:24:16.950Z,5.75
2022-11-12T08:27:04.987Z,5.73
2022-11-12T08:29:52.385Z,5.51
2022-11-12T08:32:42.556Z,5.45
2022-11-12T08:35:34.695Z,5.82
2022-11-12T08:38:28.865Z,5.65
2022-11-12T08:41:17.744Z,5.93
2022-11-12T08:44:08.539Z,5.89
2022-11-12T08:46:57.017Z,5.05
2022-11-12T08:49:47.967Z,5.48
2022-11-12T08:52:36.201Z,5.66
2022-11-12T08:55:26.302Z,5.97
2022-11-12T08:58:15.745Z,6.19
2022-11-12T09:01:06.163Z,6.23
2022-11-12T09:03:53.923Z,6.26
2022-11-12T09:06:41.960Z,6.53
2022-11-12T09:09:29.147Z,6.57
2022-11-12T09:12:19.892Z,6.79
2022-11-12T09:15:39.405Z,6.98
2022-11-12T09:18:27.107Z,7.12
2022-11-12T09:21:17.973Z,7.25
2022-11-12T09:24:11.477Z,7.56
2022-11-12T09:27:04.178Z,7.72
2022-11-12T09:30:11.926Z,7.75
2022-11-12T09:33:09.164Z,7.96
2022-11-12T09:36:01.318Z,7.94
2022-11-12T09:38:48.887Z,7.99
2022-11-12T09:41:41.021Z,7.51
2022-11-12T09:44:36.615Z,8.21
2022-11-12T09:47:36.853Z,8.30
2022-11-12T09:50:28.183Z,8.50
2022-11-12T09:54:31.464Z,8.59
2022-11-12T09:57:24.524Z,8.76
2022-11-12T10:00:17.752Z,8.81
2022-11-12T10:03:11.973Z,9.12
2022-11-12T10:06:10.507Z,9.02
2022-11-12T10:09:05.012Z,9.41
2022-11-12T10:12:25.653Z,9.77
2022-11-12T10:15:50.694Z,9.80
2022-11-12T10:18:51.902Z,9.38
2022-11-12T10:21:47.723Z,10.15
2022-11-12T10:24:37.877Z,10.32
2022-11-12T10:27:29.370Z,10.42
2022-11-12T10:30:18.885Z,10.52
2022-11-12T10:33:06.252Z,10.59
2022-11-12T10:35:58.288Z,11.14
2022-11-12T10:38:49.092Z,11.44
2022-11-12T10:41:36.526Z,11.27
2022-11-12T10:44:27.832Z,11.16
2022-11-12T10:47:23.794Z,11.29
2022-11-12T10:50:19.719Z,11.92
2022-11-12T10:53:12.617Z,12.23
2022-11-12T10:56:02.109Z,12.00
2022-11-12T10:59:11.011Z,10.77
2022-11-12T11:01:59.980Z,12.24
2022-11-12T11:04:47.877Z,12.25
2022-11-12T11:07:36.045Z,12.34
2022-11-12T11:10:28.491Z,12.56
2022-11-12T11:13:22.111Z,12.49
2022-11-12T11:16:14.616Z,12.63
2022-11-12T11:19:06.678Z,12.78
2022-11-12T11:22:05.594Z,12.94
2022-11-12T11:25:02.608Z,12.93
2022-11-12T11:28:02.566Z,13.03
2022-11-12T11:30:57.267Z,13.14
2022-11-12T11:33:51.658Z,13.27
2022-11-12T11:36:45.880Z,13.43
2022-11-12T11:39:46.573Z,13.58
2022-11-12T11:42:50.660Z,13.67
2022-11-12T11:45:55.741Z,13.72
2022-11-12T11:48:59.852Z,13.75
2022-11-12T11:51:54.214Z,13.88
2022-11-12T11:55:07.789Z,13.95
2022-11-12T11:58:04.217Z,14.05
2022-11-12T12:01:01.439Z,13.78
2022-11-12T12:04:07.972Z,13.82
2022-11-12T12:07:10.174Z,14.03
2022-11-12T12:10:09.488Z,14.16
2022-11-12T12:13:06.567Z,14.22
2022-11-12T12:16:31.884Z,14.24
2022-11-12T12:19:34.326Z,14.38
2022-11-12T12:25:43.722Z,15.14
2022-11-12T12:28:39.079Z,14.97
2022-11-12T12:31:36.328Z,14.87
2022-11-12T12:34:30.808Z,14.74
2022-11-12T12:37:25.615Z,14.72
2022-11-12T12:40:19.254Z,15.11
2022-11-12T12:43:08.674Z,14.84
2022-11-12T12:45:58.656Z,14.74
2022-11-12T12:48:48.703Z,14.96
2022-11-12T12:51:36.068Z,15.10
2022-11-12T12:55:00.151Z,15.42
2022-11-12T12:57:47.684Z,15.50
2022-11-12T13:00:39.583Z,15.39
2022-11-12T13:04:46.799Z,15.13
2022-11-12T13:07:45.354Z,15.13
2022-11-12T13:10:50.772Z,15.12
2022-11-12T13:13:40.341Z,15.11
2022-11-12T13:16:58.830Z,15.43
2022-11-12T13:20:08.142Z,15.58
2022-11-12T13:22:57.208Z,15.43
2022-11-12T13:25:45.304Z,15.73
2022-11-12T13:28:32.953Z,15.62
2022-11-12T13:31:30.431Z,15.80
2022-11-12T13:34:23.684Z,15.64
2022-11-12T13:37:21.241Z,15.74
2022-11-12T13:40:16.520Z,15.45
2022-11-12T13:43:14.328Z,15.69
2022-11-12T13:46:23.672Z,15.69
2022-11-12T13:49:15.102Z,15.36
2022-11-12T13:52:02.908Z,14.30
2022-11-12T13:55:03.495Z,15.24
2022-11-12T14:07:45.515Z,15.08
2022-11-12T14:10:45.876Z,15.09
2022-11-12T14:13:45.341Z,14.74
2022-11-12T14:16:46.236Z,14.84
2022-11-12T14:20:01.106Z,14.49
2022-11-12T14:22:50.016Z,14.49
2022-11-12T14:25:48.625Z,14.78
2022-11-12T14:28:39.779Z,14.61
2022-11-12T14:31:27.808Z,14.48
2022-11-12T14:34:22.359Z,14.50
2022-11-12T14:37:37.300Z,14.46
2022-11-12T14:40:33.259Z,14.17
2022-11-12T14:43:28.328Z,14.13
2022-11-12T14:46:25.758Z,13.94
2022-11-12T14:49:23.049Z,14.37
2022-11-12T14:52:15.092Z,14.32
2022-11-12T14:55:11.726Z,14.33
2022-11-12T14:58:04.420Z,14.06
2022-11-12T15:00:53.235Z,13.90
2022-11-12T15:03:40.992Z,13.66
2022-11-12T15:06:31.422Z,13.80
2022-11-12T15:09:32.556Z,13.73
2022-11-12T15:12:34.336Z,13.58
2022-11-12T15:15:24.004Z,13.52
2022-11-12T15:18:19.232Z,13.57
2022-11-12T15:21:15.442Z,13.75
2022-11-12T15:24:09.257Z,13.76
2022-11-12T15:27:00.551Z,13.88
2022-11-12T15:29:50.282Z,13.66
2022-11-12T15:32:39.307Z,12.49
2022-11-12T15:35:39.413Z,13.50
2022-11-12T15:38:31.677Z,13.36
2022-11-12T15:41:24.664Z,13.34
2022-11-12T15:44:12.333Z,13.21
2022-11-12T15:47:01.488Z,13.29
2022-11-12T15:49:50.683Z,13.50
2022-11-12T15:52:37.972Z,13.35
2022-11-12T15:55:25.284Z,13.23
2022-11-12T15:58:18.495Z,13.12
2022-11-12T16:01:06.505Z,12.88
2022-11-12T16:03:55.127Z,13.01
2022-11-12T16:06:42.328Z,12.67
2022-11-12T16:09:29.378Z,12.78
2022-11-12T16:12:17.280Z,12.44
2022-11-12T16:15:05.207Z,12.52
2022-11-12T16:17:53.242Z,12.61
2022-11-12T16:20:41.869Z,12.49
2022-11-12T16:23:29.579Z,12.35
2022-11-12T16:26:25.200Z,12.38
2022-11-12T16:29:14.514Z,12.21
2022-11-12T16:32:02.715Z,12.20
2022-11-12T16:34:51.071Z,12.21
2022-11-12T16:37:40.441Z,12.10
2022-11-12T16:40:28.975Z,11.97
2022-11-12T16:43:16.098Z,11.84
2022-11-12T16:46:08.160Z,11.71
2022-11-12T16:48:56.194Z,10.74
2022-11-12T16:51:43.562Z,11.66
2022-11-12T16:54:32.158Z,11.58
2022-11-12T16:57:19.493Z,11.48
2022-11-12T17:00:08.901Z,11.56
2022-11-12T17:02:56.107Z,11.53
2022-11-12T17:05:43.364Z,11.50
2022-11-12T17:08:33.982Z,11.39
2022-11-12T17:11:23.311Z,11.49
2022-11-12T17:14:11.052Z,11.37
2022-11-12T17:16:58.078Z,11.45
2022-11-12T17:19:45.639Z,10.56
2022-11-12T17:22:32.765Z,11.14
2022-11-12T17:25:19.766Z,11.31
2022-11-12T17:28:08.434Z,10.86
2022-11-12T17:31:04.056Z,11.16
2022-11-12T17:33:54.620Z,10.89
2022-11-12T17:36:43.752Z,10.97
2022-11-12T17:39:31.185Z,10.84
2022-11-12T17:42:19.342Z,10.76
2022-11-12T17:45:09.038Z,10.68
2022-11-12T17:47:56.103Z,10.75
2022-11-12T17:50:43.492Z,10.71
2022-11-12T17:53:30.966Z,10.75
2022-11-12T17:56:20.718Z,10.91
2022-11-12T17:59:08.258Z,10.77
2022-11-12T18:01:57.016Z,10.79
2022-11-12T18:04:44.305Z,10.95
2022-11-12T18:07:31.735Z,10.70
2022-11-12T18:10:20.128Z,10.53
2022-11-12T18:13:07.331Z,10.37
2022-11-12T18:15:54.463Z,10.21
2022-11-12T18:18:42.803Z,10.11
2022-11-12T18:21:30.093Z,10.19
2022-11-12T18:24:17.882Z,10.22
2022-11-12T18:27:05.486Z,10.19
2022-11-12T18:29:52.653Z,10.16
2022-11-12T18:32:41.394Z,10.11
2022-11-12T18:35:30.671Z,10.05
2022-11-12T18:38:18.068Z,10.01
2022-11-12T18:41:07.038Z,9.88
2022-11-12T18:43:54.676Z,10.11
2022-11-12T18:46:41.728Z,10.15
2022-11-12T18:49:29.072Z,9.89
2022-11-12T18:52:17.731Z,10.15
2022-11-12T18:55:05.990Z,10.05
2022-11-12T18:57:53.291Z,9.93
2022-11-12T19:00:40.790Z,9.85
2022-11-12T19:03:28.118Z,9.91
2022-11-12T19:06:20.693Z,9.99
2022-11-12T19:09:12.333Z,9.01
2022-11-12T19:12:04.462Z,9.93
2022-11-12T19:14:53.241Z,9.85
2022-11-12T19:17:44.371Z,9.75
2022-11-12T19:20:32.716Z,9.54
2022-11-12T19:23:21.878Z,9.71
2022-11-12T19:26:13.932Z,9.60
2022-11-12T19:29:02.823Z,9.54
2022-11-12T19:31:51.220Z,9.48
2022-11-12T19:34:39.555Z,9.46
2022-11-12T19:37:33.412Z,9.19
2022-11-12T19:40:22.471Z,9.42
2022-11-12T19:43:12.822Z,9.41
2022-11-12T19:46:01.127Z,9.34
2022-11-12T19:48:48.852Z,9.29
2022-11-12T19:51:35.862Z,9.02
2022-11-12T19:54:25.537Z,9.07
2022-11-12T19:57:12.757Z,9.03
2022-11-12T20:00:01.730Z,8.91
2022-11-12T20:02:48.751Z,8.83
2022-11-12T20:05:35.880Z,8.90
2022-11-12T20:08:25.805Z,8.95
2022-11-12T20:11:16.216Z,8.80
2022-11-12T20:14:09.214Z,8.60
2022-11-12T20:16:59.278Z,8.74
2022-11-12T20:19:48.371Z,8.71
2022-11-12T20:22:37.154Z,8.55
2022-11-12T20:25:25.670Z,8.43
2022-11-12T20:28:14.941Z,8.60
2022-11-12T20:31:05.356Z,8.61
2022-11-12T20:33:58.062Z,8.66
2022-11-12T20:36:49.436Z,8.60
2022-11-12T20:39:38.416Z,7.79
2022-11-12T20:42:27.429Z,8.74
2022-11-12T20:45:16.340Z,9.04
2022-11-12T20:48:05.019Z,8.79
2022-11-12T20:51:22.806Z,8.59
2022-11-12T20:54:14.748Z,8.55
2022-11-12T20:57:04.606Z,8.47
2022-11-12T20:59:53.701Z,8.51
2022-11-12T21:02:41.220Z,8.49
2022-11-12T21:05:29.565Z,8.40
2022-11-12T21:08:19.050Z,8.37
2022-11-12T21:11:09.052Z,8.32
2022-11-12T21:13:57.603Z,8.27
2022-11-12T21:16:45.589Z,8.27
2022-11-12T21:19:34.162Z,8.04
2022-11-12T21:22:22.783Z,8.25
2022-11-12T21:25:14.953Z,8.23
2022-11-12T21:28:03.413Z,7.97
2022-11-12T21:30:52.772Z,8.18
2022-11-12T21:33:40.896Z,7.18
2022-11-12T21:36:30.350Z,7.91
2022-11-12T21:39:18.552Z,8.19
2022-11-12T21:42:09.299Z,8.24
2022-11-12T21:45:00.417Z,8.34
2022-11-12T21:47:49.005Z,8.49
2022-11-12T21:50:37.555Z,8.68
2022-11-12T21:53:26.490Z,8.57
2022-11-12T21:56:17.525Z,8.47
2022-11-12T21:59:08.033Z,8.44
2022-11-12T22:01:57.174Z,8.39
2022-11-12T22:04:45.785Z,8.23
2022-11-12T22:07:34.346Z,7.15
2022-11-12T22:10:22.583Z,7.94
2022-11-12T22:13:27.658Z,8.02
2022-11-12T22:16:19.673Z,7.87
2022-11-12T22:19:08.762Z,7.93
2022-11-12T22:21:59.934Z,7.86
2022-11-12T22:24:50.263Z,7.87
2022-11-12T22:27:38.802Z,7.91
2022-11-12T22:30:27.443Z,7.87
2022-11-12T22:33:17.578Z,7.82
2022-11-12T22:36:09.011Z,7.72
2022-11-12T22:38:57.714Z,7.79
2022-11-12T22:41:46.733Z,7.75
2022-11-12T22:44:38.173Z,7.70
2022-11-12T22:47:27.343Z,7.68
2022-11-12T22:50:17.806Z,6.58
2022-11-12T22:53:07.608Z,7.62
2022-11-12T22:55:57.295Z,7.62
2022-11-12T22:58:48.304Z,7.62
2022-11-12T23:01:38.029Z,7.62
2022-11-12T23:04:27.487Z,7.65
2022-11-12T23:07:19.339Z,7.62
2022-11-12T23:10:12.470Z,7.59
2022-11-12T23:13:02.033Z,7.60
2022-11-12T23:15:51.609Z,7.67
2022-11-12T23:18:40.611Z,7.83
2022-11-12T23:21:31.883Z,7.26
2022-11-12T23:24:22.079Z,7.85
2022-11-12T23:27:11.155Z,7.69
2022-11-12T23:30:00.545Z,7.71
2022-11-12T23:32:49.941Z,7.64
2022-11-12T23:35:38.954Z,7.61
2022-11-12T23:38:30.985Z,7.54
2022-11-12T23:41:26.439Z,7.49
2022-11-12T23:44:15.602Z,7.47
2022-11-12T23:47:04.867Z,7.47
2022-11-12T23:49:54.673Z,7.43
2022-11-12T23:52:43.961Z,7.47
2022-11-12T23:55:37.455Z,7.42
2022-11-12T23:58:32.539Z,7.36
